createdAt,value
2023-04-24T00:02:20.876Z,98358.19
2023-04-24T00:04:50.148Z,98362.76
2023-04-24T00:07:18.529Z,98360.98
2023-04-24T00:09:47.096Z,98361.31
2023-04-24T00:12:15.422Z,98363.33
2023-04-24T00:14:43.752Z,98359.73
2023-04-24T00:17:12.061Z,98354.49
2023-04-24T00:19:40.637Z,98355.79
2023-04-24T00:22:08.990Z,98356.60
2023-04-24T00:24:37.212Z,98360.45
2023-04-24T00:27:05.457Z,98358.06
2023-04-24T00:29:33.630Z,98357.12
2023-04-24T00:32:02.124Z,98355.74
2023-04-24T00:34:30.467Z,98349.70
2023-04-24T00:36:58.775Z,98347.69
2023-04-24T00:39:27.315Z,98346.21
2023-04-24T00:41:56.238Z,98347.08
2023-04-24T00:44:25.085Z,98348.05
2023-04-24T00:46:55.793Z,98347.85
2023-04-24T00:49:24.343Z,98342.26
2023-04-24T00:51:52.978Z,98341.06
2023-04-24T00:54:21.750Z,98339.59
2023-04-24T00:56:50.204Z,98337.37
2023-04-24T00:59:19.079Z,98335.73
2023-04-24T01:01:48.008Z,98336.26
2023-04-24T01:04:19.005Z,98331.91
2023-04-24T01:06:47.589Z,98331.76
2023-04-24T01:09:16.563Z,98331.45
2023-04-24T01:11:44.992Z,98330.50
2023-04-24T01:14:14.342Z,98329.67
2023-04-24T01:16:43.396Z,98330.95
2023-04-24T01:19:13.507Z,98329.89
2023-04-24T01:21:44.381Z,98329.69
2023-04-24T01:24:13.111Z,98328.89
2023-04-24T01:26:41.368Z,98326.85
2023-04-24T01:29:09.746Z,98322.40
2023-04-24T01:31:38.245Z,98319.23
2023-04-24T01:34:06.858Z,98315.88
2023-04-24T01:36:36.214Z,98311.22
2023-04-24T01:39:04.824Z,98310.23
2023-04-24T01:41:33.761Z,98307.16
2023-04-24T01:44:02.799Z,98304.16
2023-04-24T01:46:32.634Z,98301.71
2023-04-24T01:49:01.650Z,98299.14
2023-04-24T01:51:30.084Z,98294.85
2023-04-24T01:53:58.885Z,98291.24
2023-04-24T01:56:34.517Z,98287.28
2023-04-24T01:59:04.258Z,98285.81
2023-04-24T02:01:39.097Z,98283.14
2023-04-24T02:04:09.048Z,98277.59
2023-04-24T02:06:38.262Z,98274.80
2023-04-24T02:09:06.573Z,98273.70
2023-04-24T02:11:34.880Z,98268.48
2023-04-24T02:14:03.351Z,98264.91
2023-04-24T02:16:33.698Z,98260.69
2023-04-24T02:19:02.324Z,98259.15
2023-04-24T02:21:31.806Z,98258.53
2023-04-24T02:24:00.208Z,98251.96
2023-04-24T02:26:28.670Z,98250.30
2023-04-24T02:29:01.283Z,98251.84
2023-04-24T02:31:29.648Z,98248.95
2023-04-24T02:33:57.930Z,98250.95
2023-04-24T02:36:26.297Z,98251.02
2023-04-24T02:38:54.732Z,98253.04
2023-04-24T02:41:22.975Z,98248.70
2023-04-24T02:43:51.261Z,98249.52
2023-04-24T02:46:19.731Z,98252.06
2023-04-24T02:48:48.073Z,98255.94
2023-04-24T02:51:16.389Z,98254.52
2023-04-24T02:53:45.024Z,98251.80
2023-04-24T02:56:14.032Z,98248.15
2023-04-24T02:58:43.308Z,98247.86
2023-04-24T03:01:11.940Z,98244.90
2023-04-24T03:03:41.160Z,98239.95
2023-04-24T03:06:09.494Z,98240.61
2023-04-24T03:08:38.165Z,98243.45
2023-04-24T03:11:06.412Z,98243.69
2023-04-24T03:13:34.620Z,98243.72
2023-04-24T03:16:03.079Z,98243.75
2023-04-24T03:18:31.546Z,98245.02
2023-04-24T03:21:00.394Z,98250.42
2023-04-24T03:23:29.040Z,98247.79
2023-04-24T03:25:57.363Z,98247.77
2023-04-24T03:28:26.878Z,98246.77
2023-04-24T03:31:01.064Z,98246.60
2023-04-24T03:33:31.775Z,98245.12
2023-04-24T03:36:03.595Z,98247.13
2023-04-24T03:38:38.750Z,98245.01
2023-04-24T03:41:36.355Z,98247.66
2023-04-24T03:44:18.872Z,98245.95
2023-04-24T03:46:47.518Z,98250.85
2023-04-24T03:49:15.895Z,98249.88
2023-04-24T03:51:45.750Z,98245.05
2023-04-24T03:54:25.301Z,98243.33
2023-04-24T03:56:54.205Z,98243.23
2023-04-24T03:59:22.768Z,98242.41
2023-04-24T04:02:00.622Z,98243.96
2023-04-24T04:04:29.075Z,98245.04
2023-04-24T04:06:57.520Z,98243.25
2023-04-24T04:09:26.469Z,98240.64
2023-04-24T04:11:54.823Z,98239.67
2023-04-24T04:14:24.328Z,98235.23
2023-04-24T04:16:54.723Z,98235.57
2023-04-24T04:19:23.376Z,98236.48
2023-04-24T04:21:54.427Z,98230.61
2023-04-24T04:24:39.196Z,98228.48
2023-04-24T04:27:10.526Z,98229.05
2023-04-24T04:29:46.922Z,98225.06
2023-04-24T04:32:19.163Z,98227.58
2023-04-24T04:34:47.518Z,98226.23
2023-04-24T04:37:15.923Z,98219.65
2023-04-24T04:40:07.964Z,98217.33
2023-04-24T04:42:43.690Z,98215.02
2023-04-24T04:45:12.679Z,98212.58
2023-04-24T04:47:52.928Z,98212.39
2023-04-24T04:50:21.647Z,98206.61
2023-04-24T04:52:50.156Z,98204.06
2023-04-24T04:55:26.279Z,98200.70
2023-04-24T04:58:15.764Z,98200.67
2023-04-24T05:00:45.282Z,98198.35
2023-04-24T05:03:39.817Z,98198.04
2023-04-24T05:06:11.132Z,98195.28
2023-04-24T05:08:41.016Z,98192.27
2023-04-24T05:11:12.743Z,98192.63
2023-04-24T05:13:41.529Z,98191.16
2023-04-24T05:16:27.784Z,98185.84
2023-04-24T05:18:56.379Z,98185.20
2023-04-24T05:21:30.249Z,98181.21
2023-04-24T05:23:58.635Z,98180.55
2023-04-24T05:26:48.037Z,98179.16
2023-04-24T05:29:17.606Z,98177.84
2023-04-24T05:31:46.091Z,98177.68
2023-04-24T05:34:15.241Z,98177.74
2023-04-24T05:36:45.110Z,98175.52
2023-04-24T05:39:13.382Z,98171.89
2023-04-24T05:41:41.792Z,98173.01
2023-04-24T05:44:10.383Z,98171.86
2023-04-24T05:46:38.753Z,98167.63
2023-04-24T05:49:07.269Z,98163.90
2023-04-24T05:51:35.715Z,98159.12
2023-04-24T05:54:04.316Z,98162.34
2023-04-24T05:56:33.039Z,98161.45
2023-04-24T05:59:01.593Z,98157.26
2023-04-24T06:01:29.753Z,98161.32
2023-04-24T06:04:07.995Z,98158.40
2023-04-24T06:06:36.976Z,98155.86
2023-04-24T06:09:05.845Z,98152.81
2023-04-24T06:11:34.311Z,98150.96
2023-04-24T06:14:02.827Z,98148.52
2023-04-24T06:16:43.447Z,98150.45
2023-04-24T06:19:21.936Z,98148.04
2023-04-24T06:21:50.689Z,98146.06
2023-04-24T06:24:18.930Z,98141.90
2023-04-24T06:26:47.267Z,98136.95
2023-04-24T06:29:15.726Z,98129.86
2023-04-24T06:31:44.032Z,98131.56
2023-04-24T06:34:12.282Z,98126.42
2023-04-24T06:36:40.701Z,98126.84
2023-04-24T06:39:08.989Z,98127.19
2023-04-24T06:41:37.220Z,98124.45
2023-04-24T06:44:05.568Z,98120.65
2023-04-24T06:46:33.907Z,98120.05
2023-04-24T06:49:02.125Z,98119.64
2023-04-24T06:51:34.045Z,98115.41
2023-04-24T06:54:02.946Z,98116.70
2023-04-24T06:56:32.153Z,98114.13
2023-04-24T06:59:00.500Z,98116.39
2023-04-24T07:01:28.865Z,98114.23
2023-04-24T07:03:57.217Z,98112.98
2023-04-24T07:06:25.631Z,98110.90
2023-04-24T07:08:54.093Z,98119.00
2023-04-24T07:11:23.223Z,98113.98
2023-04-24T07:13:51.379Z,98114.87
2023-04-24T07:16:19.678Z,98115.40
2023-04-24T07:18:48.141Z,98114.52
2023-04-24T07:21:16.630Z,98117.01
2023-04-24T07:23:44.892Z,98109.83
2023-04-24T07:26:15.453Z,98106.44
2023-04-24T07:28:44.109Z,98101.56
2023-04-24T07:31:12.904Z,98102.34
2023-04-24T07:33:41.191Z,98104.16
2023-04-24T07:36:16.291Z,98096.89
2023-04-24T07:38:44.450Z,98096.58
2023-04-24T07:41:14.398Z,98092.98
2023-04-24T07:43:43.110Z,98090.54
2023-04-24T07:46:11.496Z,98094.00
2023-04-24T07:48:39.770Z,98090.80
2023-04-24T07:51:09.318Z,98086.39
2023-04-24T07:53:37.629Z,98085.61
2023-04-24T07:56:06.668Z,98083.66
2023-04-24T07:58:35.600Z,98081.03
2023-04-24T08:01:04.085Z,98077.31
2023-04-24T08:03:32.475Z,98076.39
2023-04-24T08:06:01.308Z,98074.96
2023-04-24T08:08:29.702Z,98073.38
2023-04-24T08:10:58.015Z,98074.15
2023-04-24T08:13:26.296Z,98066.39
2023-04-24T08:15:54.947Z,98065.88
2023-04-24T08:18:23.487Z,98064.88
2023-04-24T08:20:51.811Z,98059.33
2023-04-24T08:23:20.242Z,98059.38
2023-04-24T08:25:48.661Z,98055.56
2023-04-24T08:28:21.159Z,98050.92
2023-04-24T08:30:49.530Z,98050.11
2023-04-24T08:33:17.753Z,98052.77
2023-04-24T08:35:46.023Z,98051.41
2023-04-24T08:38:14.349Z,98050.19
2023-04-24T08:40:42.862Z,98048.17
2023-04-24T08:43:12.252Z,98039.98
2023-04-24T08:45:41.168Z,98040.56
2023-04-24T08:48:19.729Z,98040.54
2023-04-24T08:50:52.543Z,98040.60
2023-04-24T08:53:21.014Z,98036.77
2023-04-24T08:55:52.904Z,98030.64
2023-04-24T08:58:21.612Z,98025.18
2023-04-24T09:00:50.378Z,98027.06
2023-04-24T09:03:20.127Z,98029.86
2023-04-24T09:05:50.746Z,98023.50
2023-04-24T09:08:20.732Z,98019.13
2023-04-24T09:10:52.170Z,98016.91
2023-04-24T09:13:21.612Z,98013.34
2023-04-24T09:15:50.413Z,98014.81
2023-04-24T09:18:18.776Z,98012.70
2023-04-24T09:21:13.326Z,98012.84
2023-04-24T09:23:42.081Z,98008.38
2023-04-24T09:26:11.591Z,98008.71
2023-04-24T09:28:41.390Z,98006.23
2023-04-24T09:31:22.680Z,98004.71
2023-04-24T09:34:03.170Z,98001.34
2023-04-24T09:36:50.414Z,97998.71
2023-04-24T09:39:21.300Z,97997.81
2023-04-24T09:41:52.694Z,97996.71
2023-04-24T09:44:22.955Z,97994.78
2023-04-24T09:46:58.929Z,97993.05
2023-04-24T09:49:34.365Z,97994.95
2023-04-24T09:52:12.662Z,97993.48
2023-04-24T09:54:41.050Z,97987.34
2023-04-24T09:57:10.511Z,97985.13
2023-04-24T09:59:45.700Z,97980.06
2023-04-24T10:02:21.694Z,97974.88
2023-04-24T10:05:01.272Z,97966.53
2023-04-24T10:07:30.072Z,97961.94
2023-04-24T10:09:58.779Z,97967.70
2023-04-24T10:12:28.166Z,97961.39
2023-04-24T10:14:57.754Z,97958.90
2023-04-24T10:17:26.898Z,97952.00
2023-04-24T10:19:56.370Z,97946.84
2023-04-24T10:22:25.280Z,97950.39
2023-04-24T10:24:53.751Z,97950.48
2023-04-24T10:27:23.056Z,97951.81
2023-04-24T10:29:54.254Z,97952.42
2023-04-24T10:32:22.671Z,97952.92
2023-04-24T10:34:51.116Z,97948.63
2023-04-24T10:37:20.336Z,97948.36
2023-04-24T10:39:52.042Z,97952.31
2023-04-24T10:42:20.857Z,97953.55
2023-04-24T10:44:50.509Z,97946.39
2023-04-24T10:47:18.948Z,97946.89
2023-04-24T10:49:47.393Z,97945.91
2023-04-24T10:52:15.993Z,97938.71
2023-04-24T10:54:48.756Z,97938.71
2023-04-24T10:57:23.281Z,97941.77
2023-04-24T11:00:12.652Z,97939.84
2023-04-24T11:02:44.928Z,97941.08
2023-04-24T11:05:18.144Z,97940.34
2023-04-24T11:08:14.636Z,97934.38
2023-04-24T11:11:00.426Z,97936.73
2023-04-24T11:13:54.461Z,97941.30
2023-04-24T11:16:31.313Z,97942.44
2023-04-24T11:19:16.550Z,97939.59
2023-04-24T11:22:02.733Z,97932.55
2023-04-24T11:24:40.755Z,97931.87
2023-04-24T11:27:19.173Z,97938.15
2023-04-24T11:30:06.119Z,97941.75
2023-04-24T11:32:34.416Z,97943.88
2023-04-24T11:35:06.329Z,97946.28
2023-04-24T11:37:43.019Z,97931.96
2023-04-24T11:40:13.155Z,97932.85
2023-04-24T11:42:44.495Z,97931.48
2023-04-24T11:45:14.123Z,97931.67
2023-04-24T11:47:43.781Z,97929.00
2023-04-24T11:50:14.457Z,97923.73
2023-04-24T11:52:44.985Z,97917.55
2023-04-24T11:55:16.283Z,97917.73
2023-04-24T11:57:45.771Z,97913.91
2023-04-24T12:00:22.227Z,97916.31
2023-04-24T12:02:51.684Z,97916.39
2023-04-24T12:05:25.107Z,97912.23
2023-04-24T12:07:54.559Z,97912.27
2023-04-24T12:10:27.756Z,97909.75
2023-04-24T12:12:57.958Z,97907.86
2023-04-24T12:15:26.768Z,97911.90
2023-04-24T12:17:56.386Z,97908.59
2023-04-24T12:20:30.377Z,97907.39
2023-04-24T12:23:00.708Z,97907.64
2023-04-24T12:25:30.068Z,97899.63
2023-04-24T12:28:18.686Z,97900.81
2023-04-24T12:30:51.404Z,97896.45
2023-04-24T12:33:23.035Z,97895.80
2023-04-24T12:35:55.176Z,97890.84
2023-04-24T12:38:27.283Z,97892.91
2023-04-24T12:41:14.833Z,97888.92
2023-04-24T12:43:54.627Z,97882.58
2023-04-24T12:46:23.226Z,97880.09
2023-04-24T12:48:51.616Z,97884.17
2023-04-24T12:51:19.907Z,97887.77
2023-04-24T12:53:48.458Z,97891.59
2023-04-24T12:56:16.743Z,97893.83
2023-04-24T12:58:46.000Z,97896.63
2023-04-24T13:01:14.301Z,97900.88
2023-04-24T13:03:43.848Z,97902.48
2023-04-24T13:06:12.341Z,97897.88
2023-04-24T13:08:40.819Z,97898.52
2023-04-24T13:11:09.119Z,97903.33
2023-04-24T13:13:37.396Z,97902.39
2023-04-24T13:16:05.998Z,97906.30
2023-04-24T13:18:34.395Z,97907.02
2023-04-24T13:21:02.658Z,97905.82
2023-04-24T13:23:31.042Z,97913.11
2023-04-24T13:25:59.537Z,97914.35
2023-04-24T13:28:28.036Z,97917.65
2023-04-24T13:30:56.538Z,97914.46
2023-04-24T13:33:24.841Z,97913.47
2023-04-24T13:35:53.246Z,97913.56
2023-04-24T13:38:23.292Z,97917.98
2023-04-24T13:40:51.753Z,97921.69
2023-04-24T13:43:19.995Z,97924.24
2023-04-24T13:45:48.305Z,97921.43
2023-04-24T13:48:16.633Z,97923.67
2023-04-24T13:50:45.534Z,97921.66
2023-04-24T13:53:13.959Z,97921.30
2023-04-24T13:55:42.610Z,97921.88
2023-04-24T13:58:11.615Z,97918.71
2023-04-24T14:00:40.023Z,97916.60
2023-04-24T14:03:08.495Z,97915.19
2023-04-24T14:05:38.772Z,97914.27
2023-04-24T14:08:07.427Z,97920.77
2023-04-24T14:10:36.295Z,97920.48
2023-04-24T14:13:04.566Z,97920.72
2023-04-24T14:15:32.994Z,97919.60
2023-04-24T14:18:01.869Z,97923.47
2023-04-24T14:20:30.672Z,97924.13
2023-04-24T14:23:00.159Z,97926.58
2023-04-24T14:25:28.566Z,97928.77
2023-04-24T14:27:56.899Z,97928.70
2023-04-24T14:30:25.193Z,97931.64
2023-04-24T14:32:53.583Z,97931.02
2023-04-24T14:35:21.897Z,97929.97
2023-04-24T14:37:50.905Z,97932.09
2023-04-24T14:40:41.473Z,97935.42
2023-04-24T14:43:08.120Z,97938.52
2023-04-24T14:45:38.227Z,97936.20
2023-04-24T14:48:06.503Z,97933.17
2023-04-24T14:50:35.173Z,97936.66
2023-04-24T14:53:03.556Z,97936.36
2023-04-24T14:55:32.109Z,97941.10
2023-04-24T14:58:00.649Z,97943.79
2023-04-24T15:00:29.116Z,97946.77
2023-04-24T15:02:57.549Z,97946.02
2023-04-24T15:05:27.589Z,97946.79
2023-04-24T15:07:56.039Z,97947.92
2023-04-24T15:10:24.970Z,97947.02
2023-04-24T15:12:53.456Z,97953.02
2023-04-24T15:15:21.725Z,97955.33
2023-04-24T15:17:50.094Z,97950.77
2023-04-24T15:20:19.281Z,97959.64
2023-04-24T15:22:47.960Z,97962.91
2023-04-24T15:25:16.260Z,97962.39
2023-04-24T15:27:46.432Z,97961.86
2023-04-24T15:30:15.522Z,97961.89
2023-04-24T15:32:43.857Z,97963.55
2023-04-24T15:35:12.289Z,97963.71
2023-04-24T15:37:40.620Z,97963.48
2023-04-24T15:40:11.546Z,97963.77
2023-04-24T15:42:41.164Z,97967.30
2023-04-24T15:45:10.535Z,97970.35
2023-04-24T15:47:39.813Z,97970.17
2023-04-24T15:50:14.450Z,97966.70
2023-04-24T15:52:46.243Z,97971.80
2023-04-24T15:55:14.434Z,97973.91
2023-04-24T15:57:43.050Z,97974.89
2023-04-24T16:00:11.908Z,97976.10
2023-04-24T16:02:41.563Z,97976.02
2023-04-24T16:05:11.252Z,97978.27
2023-04-24T16:07:40.420Z,97979.31
2023-04-24T16:10:09.962Z,97977.89
2023-04-24T16:12:38.224Z,97978.55
2023-04-24T16:15:07.146Z,97977.55
2023-04-24T16:17:35.719Z,97978.95
2023-04-24T16:20:05.459Z,97979.77
2023-04-24T16:22:33.754Z,97982.83
2023-04-24T16:25:02.277Z,97983.69
2023-04-24T16:27:30.759Z,97982.57
2023-04-24T16:29:59.763Z,97981.52
2023-04-24T16:32:28.324Z,97980.95
2023-04-24T16:34:56.778Z,97982.79
2023-04-24T16:37:25.052Z,97983.94
2023-04-24T16:39:55.157Z,97982.48
2023-04-24T16:42:23.699Z,97979.48
2023-04-24T16:44:52.086Z,97980.95
2023-04-24T16:47:20.762Z,97981.33
2023-04-24T16:49:49.865Z,97975.77
2023-04-24T16:52:18.171Z,97977.52
2023-04-24T16:54:46.543Z,97982.33
2023-04-24T16:57:15.010Z,97981.69
2023-04-24T16:59:43.304Z,97977.95
2023-04-24T17:02:11.764Z,97982.41
2023-04-24T17:04:42.060Z,97981.61
2023-04-24T17:07:10.468Z,97978.61
2023-04-24T17:09:38.906Z,97975.08
2023-04-24T17:12:08.400Z,97973.08
2023-04-24T17:14:36.964Z,97972.33
2023-04-24T17:17:05.576Z,97970.21
2023-04-24T17:19:33.903Z,97976.00
2023-04-24T17:22:06.140Z,97979.69
2023-04-24T17:24:34.987Z,97982.45
2023-04-24T17:27:31.441Z,97981.93
2023-04-24T17:29:59.944Z,97978.84
2023-04-24T17:32:28.822Z,97978.93
2023-04-24T17:34:57.258Z,97980.55
2023-04-24T17:37:26.953Z,97982.58
2023-04-24T17:39:55.468Z,97981.91
2023-04-24T17:42:23.975Z,97982.73
2023-04-24T17:44:52.360Z,97980.48
2023-04-24T17:47:22.491Z,97977.20
2023-04-24T17:49:52.134Z,97974.67
2023-04-24T17:52:20.743Z,97973.91
2023-04-24T17:54:49.833Z,97969.73
2023-04-24T17:57:20.920Z,97968.85
2023-04-24T18:00:14.602Z,97964.13
2023-04-24T18:02:43.103Z,97964.65
2023-04-24T18:05:11.634Z,97965.72
2023-04-24T18:07:40.184Z,97965.44
2023-04-24T18:10:09.046Z,97965.48
2023-04-24T18:12:37.504Z,97972.38
2023-04-24T18:15:14.353Z,97972.64
2023-04-24T18:17:43.713Z,97975.19
2023-04-24T18:20:16.346Z,97977.75
2023-04-24T18:22:45.545Z,97979.45
2023-04-24T18:25:15.406Z,97983.58
2023-04-24T18:27:43.734Z,97987.80
2023-04-24T18:30:14.913Z,97990.30
2023-04-24T18:32:43.500Z,97993.25
2023-04-24T18:35:11.692Z,97994.55
2023-04-24T18:37:40.920Z,97994.35
2023-04-24T18:40:10.035Z,97993.00
2023-04-24T18:42:38.915Z,97990.77
2023-04-24T18:45:08.034Z,97992.23
2023-04-24T18:47:36.846Z,97989.45
2023-04-24T18:50:06.628Z,97992.08
2023-04-24T18:52:36.093Z,97995.80
2023-04-24T18:55:04.854Z,97997.15
2023-04-24T18:57:33.679Z,98004.69
2023-04-24T19:00:02.285Z,98005.79
2023-04-24T19:02:30.968Z,98007.30
2023-04-24T19:04:59.366Z,98005.04
2023-04-24T19:07:27.592Z,98001.79
2023-04-24T19:09:55.867Z,98003.97
2023-04-24T19:12:24.285Z,98003.95
2023-04-24T19:14:55.795Z,98005.11
2023-04-24T19:17:25.561Z,98002.20
2023-04-24T19:19:53.957Z,98002.15
2023-04-24T19:22:22.266Z,98000.05
2023-04-24T19:24:50.565Z,97996.70
2023-04-24T19:27:18.807Z,97996.21
2023-04-24T19:29:47.403Z,97996.10
2023-04-24T19:32:15.782Z,97997.81
2023-04-24T19:34:44.130Z,97994.77
2023-04-24T19:37:13.413Z,97996.59
2023-04-24T19:39:42.016Z,97996.47
2023-04-24T19:42:10.388Z,97994.75
2023-04-24T19:44:39.528Z,97993.73
2023-04-24T19:47:09.624Z,97993.19
2023-04-24T19:49:38.184Z,97995.38
2023-04-24T19:52:08.998Z,97991.63
2023-04-24T19:54:37.492Z,97990.23
2023-04-24T19:57:05.848Z,97988.31
2023-04-24T19:59:34.258Z,97984.24
2023-04-24T20:02:02.668Z,97987.07
2023-04-24T20:04:31.384Z,97987.05
2023-04-24T20:06:59.779Z,97986.33
2023-04-24T20:09:28.349Z,97985.61
2023-04-24T20:11:57.213Z,97984.67
2023-04-24T20:14:25.620Z,97984.89
2023-04-24T20:16:54.465Z,97985.39
2023-04-24T20:19:22.814Z,97987.47
2023-04-24T20:21:51.709Z,97986.35
2023-04-24T20:24:20.292Z,97986.54
2023-04-24T20:26:48.617Z,97991.41
2023-04-24T20:29:16.909Z,97991.59
2023-04-24T20:31:45.486Z,97986.63
2023-04-24T20:34:13.888Z,97987.20
2023-04-24T20:36:47.978Z,97989.27
2023-04-24T20:39:17.775Z,97986.89
2023-04-24T20:41:46.473Z,97987.86
2023-04-24T20:44:14.873Z,97987.20
2023-04-24T20:46:43.290Z,97983.61
2023-04-24T20:49:11.543Z,97982.38
2023-04-24T20:51:40.147Z,97981.10
2023-04-24T20:54:08.508Z,97983.55
2023-04-24T20:56:36.880Z,97984.89
2023-04-24T20:59:05.194Z,97983.17
2023-04-24T21:01:33.500Z,97983.20
2023-04-24T21:04:01.926Z,97982.73
2023-04-24T21:06:31.053Z,97978.58
2023-04-24T21:08:59.589Z,97979.26
2023-04-24T21:11:27.913Z,97981.17
2023-04-24T21:13:56.276Z,97980.34
2023-04-24T21:16:24.763Z,97981.33
2023-04-24T21:18:53.054Z,97979.04
2023-04-24T21:21:21.556Z,97980.70
2023-04-24T21:23:50.070Z,97980.29
2023-04-24T21:26:18.705Z,97980.27
2023-04-24T21:28:47.249Z,97980.90
2023-04-24T21:31:15.587Z,97978.16
2023-04-24T21:33:43.852Z,97978.98
2023-04-24T21:36:12.160Z,97979.73
2023-04-24T21:38:40.819Z,97979.79
2023-04-24T21:41:09.224Z,97978.05
2023-04-24T21:43:44.836Z,97980.38
2023-04-24T21:46:13.859Z,97983.38
2023-04-24T21:48:42.143Z,97982.10
2023-04-24T21:51:12.488Z,97977.52
2023-04-24T21:53:41.474Z,97976.35
2023-04-24T21:56:09.743Z,97976.08
2023-04-24T21:58:39.271Z,97976.97
2023-04-24T22:01:07.777Z,97976.83
2023-04-24T22:03:36.280Z,97976.10
2023-04-24T22:06:04.838Z,97974.95
2023-04-24T22:08:33.071Z,97971.88
2023-04-24T22:11:01.399Z,97975.52
2023-04-24T22:13:33.231Z,97972.67
2023-04-24T22:16:02.339Z,97973.27
2023-04-24T22:18:36.738Z,97970.34
2023-04-24T22:21:15.953Z,97965.48
2023-04-24T22:23:44.050Z,97965.05
2023-04-24T22:26:12.578Z,97965.63
2023-04-24T22:28:40.821Z,97966.51
2023-04-24T22:31:09.261Z,97964.23
2023-04-24T22:33:37.459Z,97961.41
2023-04-24T22:36:05.909Z,97959.00
2023-04-24T22:38:34.224Z,97955.89
2023-04-24T22:41:02.414Z,97954.52
2023-04-24T22:43:32.760Z,97955.70
2023-04-24T22:46:01.000Z,97956.05
2023-04-24T22:48:29.130Z,97956.41
2023-04-24T22:50:58.380Z,97954.17
2023-04-24T22:53:27.822Z,97955.20
2023-04-24T22:55:56.700Z,97953.30
2023-04-24T22:58:26.064Z,97953.77
2023-04-24T23:00:54.305Z,97950.42
2023-04-24T23:03:22.728Z,97949.83
2023-04-24T23:05:51.107Z,97947.45
2023-04-24T23:08:19.278Z,97943.10
2023-04-24T23:10:47.878Z,97942.49
2023-04-24T23:13:16.352Z,97940.51
2023-04-24T23:15:44.614Z,97936.05
2023-04-24T23:18:12.851Z,97936.73
2023-04-24T23:20:42.061Z,97934.23
2023-04-24T23:23:10.596Z,97933.23
2023-04-24T23:25:39.209Z,97930.08
2023-04-24T23:28:07.410Z,97929.14
2023-04-24T23:30:35.657Z,97924.48
2023-04-24T23:33:03.941Z,97922.61
2023-04-24T23:35:32.295Z,97924.92
2023-04-24T23:38:00.955Z,97922.23
2023-04-24T23:40:29.161Z,97920.82
2023-04-24T23:43:06.305Z,97918.12
2023-04-24T23:45:35.759Z,97923.20
2023-04-24T23:48:04.612Z,97921.86
2023-04-24T23:50:32.911Z,97921.94
2023-04-24T23:53:01.232Z,97919.76
2023-04-24T23:55:29.866Z,97922.15
2023-04-24T23:57:58.178Z,97916.59
